Brooklyn Center, Minnesota
Current Conditions -  °F | °C
As of 11:53 AM on Friday 24 Oct 2014 (Local Time) from KMIC Reporting Station
Clear Clear  
Wind Chill: 62°   Ceiling: Unl
Heat Index: 62°   Visibility: 10mi
Dew Point: 50°   Wind: 7mph
Humidity: 65%   Direction: 160°SSE
Pressure: 29.85"   Gusts: NA
Location:  45.07°N, 93.31°W
Report Text: KMIC 241653Z 16006KT 10SM CLR 17/10 A2985 RMK AO2 SLP110 T01670100
Loading
Personal Weather Stations






























Interactive Weather Map
Tropical Storm Tracking
New forecast layout! Learn more

10-Day Weather Forecast

Advertisements
Track Severe Weather on mobile